Terminal Aerodrome Forecast
Issued by NWS

Home | Current Version | Previous Version | Text Only | Print | Product List | Glossary On
Versions: 1 2 3 4 5 6 7 8 9 10 11 12 13 14 15 16 17 18 19 20 21 22 23 24 25 26
000
FTUS43 KDLH 250500
TAFHYR
TAF
KHYR 250528Z 2506/2606 21007KT P6SM OVC012
     FM250900 21007KT 6SM BR OVC010
      TEMPO 2509/2513 5SM -FZDZSN OVC007
     FM251700 19004KT 5SM -SN OVC012
      TEMPO 2519/2523 2SM -SN
     FM260100 VRB03KT 3SM -SN OVC010=

USA.gov is the U.S. government's official web portal to all federal, state and local government web resources and services.